Sainte-Blandine, Canada
Current Conditions -  °F | °C
As of 5:00 PM on Friday 24 Oct 2014 (Local Time) from CYYY Reporting Station
Overcast Overcast  
Wind Chill: 35°   Ceiling: 8000
Heat Index: 43°   Visibility: 30mi
Dew Point: 30°   Wind: 15mph
Humidity: 61%   Direction: 70°ENE
Pressure: 29.8"   Gusts: NA
Location:  48.35°N, 68.45°W
Report Text: CYYY 242100Z 07013KT 30SM FEW020 OVC080 06/M01 A2980 RMK SC2AC6 SLP092
Loading
Personal Weather Stations






























Interactive Weather Map
Tropical Storm Tracking
New forecast layout! Learn more

10-Day Weather Forecast

Advertisements
Track Severe Weather on mobile